createdAt,value
2019-01-27T00:01:51.650Z,96569.45
2019-01-27T00:04:21.387Z,96561.98
2019-01-27T00:06:50.784Z,96557.15
2019-01-27T00:09:20.204Z,96560.91
2019-01-27T00:11:49.851Z,96554.42
2019-01-27T00:14:19.561Z,96548.18
2019-01-27T00:16:48.978Z,96547.94
2019-01-27T00:19:18.492Z,96549.33
2019-01-27T00:21:47.956Z,96538.91
2019-01-27T00:24:17.351Z,96529.86
2019-01-27T00:26:46.863Z,96530.30
2019-01-27T00:29:16.252Z,96526.71
2019-01-27T00:31:45.680Z,96520.13
2019-01-27T00:34:15.288Z,96521.54
2019-01-27T00:36:44.730Z,96514.76
2019-01-27T00:39:14.195Z,96511.00
2019-01-27T00:41:43.592Z,96504.66
2019-01-27T00:44:13.014Z,96501.49
2019-01-27T00:46:42.553Z,96499.32
2019-01-27T00:49:11.982Z,96491.32
2019-01-27T00:51:41.399Z,96485.98
2019-01-27T00:54:10.936Z,96480.59
2019-01-27T00:56:40.329Z,96475.70
2019-01-27T00:59:09.834Z,96469.87
2019-01-27T01:01:39.425Z,96469.12
2019-01-27T01:04:09.085Z,96469.57
2019-01-27T01:06:38.482Z,96460.83
2019-01-27T01:09:12.007Z,96460.46
2019-01-27T01:11:41.482Z,96454.58
2019-01-27T01:14:10.861Z,96457.84
2019-01-27T01:16:40.407Z,96454.08
2019-01-27T01:19:09.849Z,96454.65
2019-01-27T01:21:39.710Z,96445.66
2019-01-27T01:24:09.093Z,96446.16
2019-01-27T01:26:38.711Z,96440.08
2019-01-27T01:29:08.094Z,96422.33
2019-01-27T01:31:37.522Z,96417.06
2019-01-27T01:34:06.963Z,96407.55
2019-01-27T01:36:36.638Z,96407.23
2019-01-27T01:39:09.354Z,96405.95
2019-01-27T01:41:38.949Z,96404.09
2019-01-27T01:44:08.352Z,96392.34
2019-01-27T01:46:37.740Z,96377.07
2019-01-27T01:49:07.383Z,96366.65
2019-01-27T01:51:36.828Z,96365.83
2019-01-27T01:54:06.602Z,96376.23
2019-01-27T01:56:36.066Z,96367.55
2019-01-27T01:59:05.451Z,96364.83
2019-01-27T02:01:34.904Z,96348.34
2019-01-27T02:04:04.728Z,96351.22
2019-01-27T02:06:34.143Z,96344.88
2019-01-27T02:09:03.942Z,96330.64
2019-01-27T02:11:33.418Z,96327.67
2019-01-27T02:14:02.892Z,96329.06
2019-01-27T02:16:32.615Z,96326.80
2019-01-27T02:19:02.014Z,96310.02
2019-01-27T02:21:31.520Z,96312.14
2019-01-27T02:24:01.128Z,96303.59
2019-01-27T02:26:30.743Z,96296.72
2019-01-27T02:29:00.131Z,96286.07
2019-01-27T02:31:29.535Z,96276.22
2019-01-27T02:33:58.943Z,96274.34
2019-01-27T02:36:28.423Z,96267.00
2019-01-27T02:38:57.833Z,96257.16
2019-01-27T02:41:27.242Z,96254.60
2019-01-27T02:43:56.710Z,96252.23
2019-01-27T02:46:26.122Z,96246.13
2019-01-27T02:48:55.668Z,96233.83
2019-01-27T02:51:25.182Z,96225.55
2019-01-27T02:53:54.597Z,96222.30
2019-01-27T02:56:24.012Z,96215.39
2019-01-27T02:58:53.505Z,96210.79
2019-01-27T03:01:23.048Z,96197.23
2019-01-27T03:03:52.741Z,96202.08
2019-01-27T03:06:40.100Z,96194.47
2019-01-27T03:09:15.312Z,96182.36
2019-01-27T03:11:48.512Z,96177.03
2019-01-27T03:14:19.501Z,96183.08
2019-01-27T03:16:50.679Z,96188.75
2019-01-27T03:19:20.068Z,96174.94
2019-01-27T03:21:49.670Z,96173.98
2019-01-27T03:24:19.227Z,96171.18
2019-01-27T03:26:48.641Z,96172.03
2019-01-27T03:29:18.102Z,96160.27
2019-01-27T03:31:47.708Z,96152.64
2019-01-27T03:34:17.182Z,96157.59
2019-01-27T03:36:46.705Z,96152.16
2019-01-27T03:39:16.228Z,96151.88
2019-01-27T03:41:45.656Z,96142.00
2019-01-27T03:44:15.066Z,96133.52
2019-01-27T03:46:44.641Z,96132.80
2019-01-27T03:49:14.260Z,96132.02
2019-01-27T03:51:44.192Z,96134.55
2019-01-27T03:54:13.449Z,96124.31
2019-01-27T03:56:43.037Z,96121.58
2019-01-27T03:59:12.766Z,96117.00
2019-01-27T04:01:42.578Z,96117.11
2019-01-27T04:04:12.233Z,96111.50
2019-01-27T04:06:41.959Z,96109.03
2019-01-27T04:09:13.818Z,96103.77
2019-01-27T04:11:43.271Z,96098.30
2019-01-27T04:14:12.825Z,96088.98
2019-01-27T04:16:42.358Z,96088.79
2019-01-27T04:19:12.194Z,96087.32
2019-01-27T04:21:41.763Z,96078.42
2019-01-27T04:24:11.593Z,96074.19
2019-01-27T04:26:41.227Z,96063.27
2019-01-27T04:29:10.798Z,96053.56
2019-01-27T04:31:40.656Z,96060.95
2019-01-27T04:34:10.448Z,96063.59
2019-01-27T04:36:40.002Z,96065.50
2019-01-27T04:39:10.904Z,96073.09
2019-01-27T04:41:40.683Z,96058.53
2019-01-27T04:44:10.490Z,96061.39
2019-01-27T04:46:40.150Z,96057.08
2019-01-27T04:49:09.740Z,96048.65
2019-01-27T04:51:39.322Z,96051.45
2019-01-27T04:54:09.149Z,96042.66
2019-01-27T04:56:38.799Z,96039.50
2019-01-27T04:59:08.557Z,96041.20
2019-01-27T05:01:38.142Z,96036.83
2019-01-27T05:04:20.099Z,96037.14
2019-01-27T05:06:49.863Z,96025.31
2019-01-27T05:09:19.535Z,96020.45
2019-01-27T05:11:48.985Z,96012.63
2019-01-27T05:14:18.644Z,96009.92
2019-01-27T05:16:48.135Z,96010.42
2019-01-27T05:19:17.545Z,96004.94
2019-01-27T05:21:47.148Z,96004.35
2019-01-27T05:24:16.863Z,95994.16
2019-01-27T05:26:46.492Z,95990.44
2019-01-27T05:29:16.356Z,95986.41
2019-01-27T05:31:45.914Z,95979.20
2019-01-27T05:34:15.472Z,95972.89
2019-01-27T05:36:45.044Z,95956.31
2019-01-27T05:39:14.503Z,95958.93
2019-01-27T05:41:44.111Z,95958.27
2019-01-27T05:44:13.601Z,95968.08
2019-01-27T05:46:43.158Z,95969.37
2019-01-27T05:49:13.482Z,95954.98
2019-01-27T05:51:43.056Z,95960.55
2019-01-27T05:54:12.635Z,95952.70
2019-01-27T05:56:42.182Z,95938.42
2019-01-27T05:59:11.576Z,95937.28
2019-01-27T06:01:40.944Z,95926.61
2019-01-27T06:04:10.500Z,95926.95
2019-01-27T06:06:39.903Z,95933.42
2019-01-27T06:09:09.854Z,95918.59
2019-01-27T06:11:39.226Z,95910.64
2019-01-27T06:14:08.797Z,95904.33
2019-01-27T06:16:38.164Z,95912.95
2019-01-27T06:19:07.797Z,95906.05
2019-01-27T06:21:37.182Z,95890.83
2019-01-27T06:24:06.563Z,95892.45
2019-01-27T06:26:35.950Z,95900.13
2019-01-27T06:29:05.933Z,95890.56
2019-01-27T06:31:35.330Z,95888.24
2019-01-27T06:34:08.348Z,95895.38
2019-01-27T06:36:38.124Z,95887.22
2019-01-27T06:39:10.416Z,95877.89
2019-01-27T06:41:39.996Z,95874.00
2019-01-27T06:44:09.709Z,95875.14
2019-01-27T06:46:39.063Z,95869.41
2019-01-27T06:49:08.492Z,95869.10
2019-01-27T06:51:37.889Z,95865.73
2019-01-27T06:54:07.454Z,95864.16
2019-01-27T06:56:36.826Z,95858.48
2019-01-27T06:59:25.381Z,95863.33
2019-01-27T07:02:03.602Z,95865.68
2019-01-27T07:04:41.534Z,95859.56
2019-01-27T07:07:26.526Z,95863.92
2019-01-27T07:10:21.071Z,95859.69
2019-01-27T07:13:18.396Z,95846.06
2019-01-27T07:16:08.983Z,95845.02
2019-01-27T07:18:53.920Z,95833.48
2019-01-27T07:21:42.358Z,95834.11
2019-01-27T07:24:29.956Z,95840.31
2019-01-27T07:27:19.848Z,95831.99
2019-01-27T07:29:51.263Z,95820.56
2019-01-27T07:32:45.802Z,95821.03
2019-01-27T07:35:25.017Z,95823.16
2019-01-27T07:38:19.235Z,95825.77
2019-01-27T07:40:57.094Z,95822.00
2019-01-27T07:43:47.304Z,95821.01
2019-01-27T07:46:35.512Z,95821.72
2019-01-27T07:49:27.784Z,95823.41
2019-01-27T07:52:15.126Z,95815.05
2019-01-27T07:54:54.651Z,95804.56
2019-01-27T07:57:41.635Z,95801.99
2019-01-27T08:00:31.050Z,95795.77
2019-01-27T08:03:19.249Z,95801.47
2019-01-27T08:06:19.895Z,95795.91
2019-01-27T08:09:01.377Z,95794.54
2019-01-27T08:11:38.784Z,95793.77
2019-01-27T08:14:25.981Z,95794.04
2019-01-27T08:17:32.725Z,95800.70
2019-01-27T08:20:26.748Z,95802.88
2019-01-27T08:23:04.403Z,95799.88
2019-01-27T08:25:58.662Z,95787.00
2019-01-27T08:28:43.534Z,95803.71
2019-01-27T08:31:31.941Z,95821.19
2019-01-27T08:34:11.199Z,95769.09
2019-01-27T08:36:48.055Z,95794.77
2019-01-27T08:39:44.224Z,95800.66
2019-01-27T08:42:43.372Z,95773.43
2019-01-27T08:45:24.381Z,95777.05
2019-01-27T08:47:53.845Z,95781.69
2019-01-27T08:50:23.239Z,95778.80
2019-01-27T08:52:52.609Z,95775.66
2019-01-27T08:55:22.019Z,95768.53
2019-01-27T08:57:51.403Z,95772.54
2019-01-27T09:00:29.126Z,95777.25
2019-01-27T09:03:20.509Z,95768.06
2019-01-27T09:06:07.906Z,95763.11
2019-01-27T09:08:54.662Z,95758.32
2019-01-27T09:12:01.624Z,95771.34
2019-01-27T09:14:52.828Z,95772.22
2019-01-27T09:17:39.821Z,95755.36
2019-01-27T09:20:29.938Z,95761.25
2019-01-27T09:23:30.372Z,95767.13
2019-01-27T09:26:17.650Z,95765.86
2019-01-27T09:29:24.635Z,95769.24
2019-01-27T09:32:11.642Z,95755.41
2019-01-27T09:35:09.139Z,95748.81
2019-01-27T09:38:02.121Z,95732.93
2019-01-27T09:40:45.974Z,95737.33
2019-01-27T09:43:32.695Z,95728.47
2019-01-27T09:46:20.728Z,95732.68
2019-01-27T09:48:54.429Z,95731.50
2019-01-27T09:51:41.743Z,95731.37
2019-01-27T09:54:34.057Z,95735.67
2019-01-27T09:57:21.825Z,95743.44
2019-01-27T09:59:57.607Z,95743.31
2019-01-27T10:02:34.986Z,95736.83
2019-01-27T10:05:27.105Z,95747.52
2019-01-27T10:08:10.505Z,95740.42
2019-01-27T10:11:02.254Z,95736.81
2019-01-27T10:14:02.720Z,95729.94
2019-01-27T10:16:49.406Z,95723.70
2019-01-27T10:19:43.562Z,95719.53
2019-01-27T10:22:41.558Z,95721.09
2019-01-27T10:25:34.355Z,95714.42
2019-01-27T10:28:29.219Z,95705.00
2019-01-27T10:31:35.683Z,95707.83
2019-01-27T10:34:19.120Z,95721.06
2019-01-27T10:37:12.229Z,95704.23
2019-01-27T10:39:48.028Z,95701.56
2019-01-27T10:42:39.094Z,95695.03
2019-01-27T10:45:28.925Z,95688.12
2019-01-27T10:48:21.144Z,95687.01
2019-01-27T10:51:03.242Z,95681.11
2019-01-27T10:53:54.443Z,95687.80
2019-01-27T10:56:32.702Z,95676.35
2019-01-27T10:59:07.690Z,95670.16
2019-01-27T11:01:48.008Z,95672.06
2019-01-27T11:04:42.548Z,95665.25
2019-01-27T11:07:46.485Z,95660.20
2019-01-27T11:10:43.199Z,95652.36
2019-01-27T11:13:40.795Z,95645.71
2019-01-27T11:16:35.063Z,95641.95
2019-01-27T11:19:26.681Z,95636.05
2019-01-27T11:22:33.172Z,95631.14
2019-01-27T11:25:21.720Z,95627.34
2019-01-27T11:27:57.334Z,95614.88
2019-01-27T11:30:35.628Z,95617.67
2019-01-27T11:33:23.037Z,95600.36
2019-01-27T11:36:11.391Z,95598.38
2019-01-27T11:38:51.272Z,95592.82
2019-01-27T11:41:30.856Z,95577.64
2019-01-27T11:44:23.892Z,95575.65
2019-01-27T11:47:21.579Z,95575.84
2019-01-27T11:50:13.306Z,95570.38
2019-01-27T11:52:49.689Z,95571.50
2019-01-27T11:55:19.167Z,95573.31
2019-01-27T11:57:48.521Z,95568.48
2019-01-27T12:00:21.874Z,95558.63
2019-01-27T12:02:51.347Z,95552.99
2019-01-27T12:05:20.778Z,95539.00
2019-01-27T12:07:50.170Z,95541.70
2019-01-27T12:10:19.563Z,95536.34
2019-01-27T12:12:49.037Z,95533.53
2019-01-27T12:15:20.253Z,95531.88
2019-01-27T12:17:49.723Z,95526.15
2019-01-27T12:20:19.113Z,95502.42
2019-01-27T12:22:48.510Z,95502.42
2019-01-27T12:25:17.929Z,95493.30
2019-01-27T12:27:47.535Z,95475.75
2019-01-27T12:30:18.629Z,95467.88
2019-01-27T12:32:48.094Z,95467.88
2019-01-27T12:35:17.527Z,95472.14
2019-01-27T12:37:49.792Z,95474.25
2019-01-27T12:40:21.650Z,95470.77
2019-01-27T12:42:51.042Z,95467.00
2019-01-27T12:45:20.545Z,95463.64
2019-01-27T12:47:49.931Z,95459.96
2019-01-27T12:50:19.854Z,95454.58
2019-01-27T12:52:51.412Z,95446.20
2019-01-27T12:55:20.995Z,95445.78
2019-01-27T12:57:51.753Z,95448.38
2019-01-27T13:00:28.035Z,95446.11
2019-01-27T13:02:57.428Z,95440.27
2019-01-27T13:05:26.936Z,95427.41
2019-01-27T13:07:56.382Z,95426.41
2019-01-27T13:10:25.756Z,95421.53
2019-01-27T13:12:55.167Z,95415.38
2019-01-27T13:15:24.642Z,95421.66
2019-01-27T13:17:54.044Z,95416.00
2019-01-27T13:20:23.482Z,95426.14
2019-01-27T13:22:52.989Z,95424.51
2019-01-27T13:25:22.361Z,95427.98
2019-01-27T13:27:51.823Z,95436.91
2019-01-27T13:30:23.213Z,95438.13
2019-01-27T13:32:52.604Z,95430.42
2019-01-27T13:35:22.887Z,95436.09
2019-01-27T13:37:52.815Z,95429.36
2019-01-27T13:40:22.857Z,95418.67
2019-01-27T13:42:52.647Z,95417.12
2019-01-27T13:45:23.733Z,95405.70
2019-01-27T13:47:53.211Z,95396.81
2019-01-27T13:50:22.635Z,95410.22
2019-01-27T13:52:52.143Z,95403.39
2019-01-27T13:55:24.057Z,95400.75
2019-01-27T13:57:53.425Z,95397.45
2019-01-27T14:00:25.368Z,95393.91
2019-01-27T14:02:54.778Z,95402.44
2019-01-27T14:05:24.159Z,95399.63
2019-01-27T14:07:53.627Z,95402.66
2019-01-27T14:10:24.930Z,95393.12
2019-01-27T14:12:54.412Z,95400.09
2019-01-27T14:15:26.204Z,95399.04
2019-01-27T14:17:55.684Z,95405.39
2019-01-27T14:20:25.087Z,95395.84
2019-01-27T14:22:54.495Z,95388.59
2019-01-27T14:25:25.597Z,95380.51
2019-01-27T14:27:55.298Z,95376.61
2019-01-27T14:30:26.944Z,95371.97
2019-01-27T14:32:56.371Z,95384.78
2019-01-27T14:35:25.764Z,95386.20
2019-01-27T14:37:55.169Z,95382.31
2019-01-27T14:40:26.055Z,95385.02
2019-01-27T14:42:55.683Z,95393.62
2019-01-27T14:45:27.306Z,95392.14
2019-01-27T14:47:56.670Z,95388.43
2019-01-27T14:50:46.431Z,95390.42
2019-01-27T14:53:16.037Z,95390.42
2019-01-27T14:55:45.636Z,95386.41
2019-01-27T14:58:15.038Z,95389.82
2019-01-27T15:00:45.218Z,95389.82
2019-01-27T15:03:15.471Z,95381.70
2019-01-27T15:05:44.996Z,95376.06
2019-01-27T15:08:14.416Z,95376.06
2019-01-27T15:10:45.158Z,95373.77
2019-01-27T15:13:14.816Z,95373.00
2019-01-27T15:15:44.413Z,95379.04
2019-01-27T15:18:13.896Z,95358.30
2019-01-27T15:20:46.814Z,95358.30
2019-01-27T15:23:16.317Z,95375.89
2019-01-27T15:25:45.706Z,95370.79
2019-01-27T15:28:15.085Z,95369.80
2019-01-27T15:30:44.537Z,95373.05
2019-01-27T15:33:13.943Z,95371.73
2019-01-27T15:35:43.429Z,95367.33
2019-01-27T15:38:12.952Z,95367.33
2019-01-27T15:40:42.328Z,95361.84
2019-01-27T15:43:11.724Z,95361.84
2019-01-27T15:45:41.221Z,95364.00
2019-01-27T15:48:10.783Z,95359.90
2019-01-27T15:50:40.187Z,95359.90
2019-01-27T15:53:09.632Z,95359.19
2019-01-27T15:55:39.352Z,95356.92
2019-01-27T15:58:09.394Z,95352.47
2019-01-27T16:00:39.109Z,95361.04
2019-01-27T16:03:08.642Z,95359.91
2019-01-27T16:05:38.043Z,95363.80
2019-01-27T16:08:07.481Z,95366.30
2019-01-27T16:10:36.970Z,95360.31
2019-01-27T16:13:06.522Z,95372.00
2019-01-27T16:15:36.245Z,95362.59
2019-01-27T16:18:06.513Z,95359.92
2019-01-27T16:20:35.959Z,95357.53
2019-01-27T16:23:22.667Z,95360.09
2019-01-27T16:25:52.190Z,95361.35
2019-01-27T16:28:21.555Z,95360.72
2019-01-27T16:31:08.859Z,95365.73
2019-01-27T16:33:44.317Z,95362.50
2019-01-27T16:36:13.780Z,95361.38
2019-01-27T16:38:43.188Z,95359.17
2019-01-27T16:41:12.845Z,95357.58
2019-01-27T16:43:42.238Z,95352.99
2019-01-27T16:46:11.643Z,95354.52
2019-01-27T16:48:41.042Z,95360.31
2019-01-27T16:51:10.414Z,95361.44
2019-01-27T16:53:39.929Z,95352.41
2019-01-27T16:56:09.323Z,95354.52
2019-01-27T16:58:38.941Z,95351.42
2019-01-27T17:01:08.350Z,95350.95
2019-01-27T17:03:37.775Z,95345.28
2019-01-27T17:06:07.587Z,95350.52
2019-01-27T17:08:38.175Z,95348.07
2019-01-27T17:11:07.810Z,95350.66
2019-01-27T17:13:37.202Z,95348.58
2019-01-27T17:16:07.751Z,95350.78
2019-01-27T17:18:38.997Z,95350.23
2019-01-27T17:21:08.386Z,95340.72
2019-01-27T17:23:37.826Z,95340.29
2019-01-27T17:26:07.194Z,95335.71
2019-01-27T17:28:36.747Z,95332.94
2019-01-27T17:31:06.180Z,95325.55
2019-01-27T17:33:35.682Z,95319.97
2019-01-27T17:36:05.268Z,95324.00
2019-01-27T17:38:40.346Z,95318.63
2019-01-27T17:41:05.868Z,95314.85
2019-01-27T17:43:35.403Z,95320.12
2019-01-27T17:46:05.657Z,95326.16
2019-01-27T17:48:35.062Z,95329.05
2019-01-27T17:51:04.654Z,95329.39
2019-01-27T17:53:43.154Z,95334.06
2019-01-27T17:56:12.583Z,95330.73
2019-01-27T17:58:59.892Z,95336.55
2019-01-27T18:01:47.157Z,95330.95
2019-01-27T18:04:35.485Z,95331.19
2019-01-27T18:07:29.864Z,95330.94
2019-01-27T18:10:31.365Z,95330.41
2019-01-27T18:13:13.751Z,95324.71
2019-01-27T18:15:43.162Z,95333.20
2019-01-27T18:18:12.684Z,95332.52
2019-01-27T18:20:42.070Z,95331.19
2019-01-27T18:23:11.515Z,95323.16
2019-01-27T18:25:40.972Z,95323.83
2019-01-27T18:28:10.742Z,95327.39
2019-01-27T18:30:40.193Z,95328.48
2019-01-27T18:33:09.818Z,95330.63
2019-01-27T18:35:39.416Z,95337.30
2019-01-27T18:38:08.801Z,95336.75
2019-01-27T18:40:38.177Z,95338.98
2019-01-27T18:43:07.654Z,95336.96
2019-01-27T18:45:37.083Z,95339.41
2019-01-27T18:48:06.575Z,95344.31
2019-01-27T18:50:35.976Z,95353.70
2019-01-27T18:53:24.318Z,95347.92
2019-01-27T18:56:21.616Z,95342.34
2019-01-27T18:59:03.405Z,95349.45
2019-01-27T19:01:50.730Z,95348.58
2019-01-27T19:04:39.443Z,95346.98
2019-01-27T19:07:34.234Z,95349.35
2019-01-27T19:10:22.182Z,95344.80
2019-01-27T19:13:13.465Z,95342.75
2019-01-27T19:16:04.663Z,95344.95
2019-01-27T19:18:51.680Z,95342.72
2019-01-27T19:21:57.684Z,95346.39
2019-01-27T19:24:51.931Z,95344.50
2019-01-27T19:27:35.472Z,95345.98
2019-01-27T19:30:38.037Z,95346.86
2019-01-27T19:33:41.872Z,95348.30
2019-01-27T19:36:17.491Z,95343.19
2019-01-27T19:39:05.954Z,95343.75
2019-01-27T19:41:51.020Z,95348.98
2019-01-27T19:44:42.475Z,95350.73
2019-01-27T19:47:29.782Z,95350.63
2019-01-27T19:50:16.895Z,95356.54
2019-01-27T19:52:52.414Z,95361.22
2019-01-27T19:55:40.763Z,95364.56
2019-01-27T19:58:38.024Z,95364.56
2019-01-27T20:01:15.753Z,95367.23
2019-01-27T20:04:13.237Z,95361.88
2019-01-27T20:06:54.000Z,95361.88
2019-01-27T20:09:41.739Z,95366.59
2019-01-27T20:12:18.886Z,95374.55
2019-01-27T20:15:13.303Z,95381.39
2019-01-27T20:17:57.136Z,95376.39
2019-01-27T20:20:44.151Z,95381.42
2019-01-27T20:23:31.441Z,95381.08
2019-01-27T20:26:25.863Z,95385.98
2019-01-27T20:29:17.070Z,95384.97
2019-01-27T20:32:01.618Z,95388.88
2019-01-27T20:34:48.814Z,95386.75
2019-01-27T20:37:28.453Z,95392.69
2019-01-27T20:40:05.568Z,95387.13
2019-01-27T20:43:06.032Z,95385.58
2019-01-27T20:45:59.061Z,95396.50
2019-01-27T20:48:41.139Z,95381.50
2019-01-27T20:51:35.626Z,95380.19
2019-01-27T20:54:23.650Z,95383.36
2019-01-27T20:57:18.202Z,95386.22
2019-01-27T21:00:05.333Z,95388.52
2019-01-27T21:02:56.930Z,95384.66
2019-01-27T21:05:34.880Z,95397.37
2019-01-27T21:08:13.260Z,95388.91
2019-01-27T21:11:20.000Z,95388.32
2019-01-27T21:13:55.466Z,95393.36
2019-01-27T21:16:46.722Z,95388.03
2019-01-27T21:19:24.790Z,95398.16
2019-01-27T21:21:54.182Z,95392.39
2019-01-27T21:24:23.713Z,95402.87
2019-01-27T21:26:53.186Z,95399.28
2019-01-27T21:29:22.596Z,95403.53
2019-01-27T21:31:52.120Z,95408.41
2019-01-27T21:34:21.775Z,95411.05
2019-01-27T21:36:51.108Z,95407.77
2019-01-27T21:39:20.482Z,95412.50
2019-01-27T21:41:49.941Z,95417.67
2019-01-27T21:44:19.417Z,95412.75
2019-01-27T21:46:48.994Z,95416.55
2019-01-27T21:49:18.404Z,95423.03
2019-01-27T21:51:47.825Z,95422.84
2019-01-27T21:54:17.233Z,95424.48
2019-01-27T21:56:46.632Z,95427.32
2019-01-27T21:59:16.143Z,95431.55
2019-01-27T22:01:45.517Z,95437.28
2019-01-27T22:04:15.125Z,95437.28
2019-01-27T22:06:45.089Z,95441.17
2019-01-27T22:09:14.508Z,95439.69
2019-01-27T22:11:43.896Z,95440.62
2019-01-27T22:14:13.495Z,95449.05
2019-01-27T22:16:43.120Z,95445.59
2019-01-27T22:19:12.611Z,95455.05
2019-01-27T22:21:42.222Z,95456.17
2019-01-27T22:24:11.799Z,95463.75
2019-01-27T22:26:41.258Z,95469.56
2019-01-27T22:29:10.655Z,95474.97
2019-01-27T22:31:40.098Z,95483.64
2019-01-27T22:34:09.560Z,95483.47
2019-01-27T22:36:39.074Z,95489.21
2019-01-27T22:39:09.557Z,95485.86
2019-01-27T22:41:38.953Z,95484.93
2019-01-27T22:44:08.343Z,95490.87
2019-01-27T22:46:37.753Z,95502.05
2019-01-27T22:49:07.137Z,95505.13
2019-01-27T22:51:37.440Z,95509.70
2019-01-27T22:54:06.931Z,95517.66
2019-01-27T22:56:36.335Z,95527.34
2019-01-27T22:59:05.705Z,95539.25
2019-01-27T23:01:35.601Z,95540.92
2019-01-27T23:04:06.790Z,95547.67
2019-01-27T23:06:36.197Z,95554.64
2019-01-27T23:09:10.713Z,95556.70
2019-01-27T23:11:40.092Z,95567.31
2019-01-27T23:14:10.595Z,95570.86
2019-01-27T23:16:39.925Z,95585.02
2019-01-27T23:19:09.311Z,95596.25
2019-01-27T23:21:38.719Z,95598.50
2019-01-27T23:24:08.122Z,95600.33
2019-01-27T23:26:37.549Z,95613.50
2019-01-27T23:29:07.022Z,95604.86
2019-01-27T23:31:36.506Z,95610.66
2019-01-27T23:34:06.014Z,95623.16
2019-01-27T23:36:35.379Z,95623.16
2019-01-27T23:39:08.383Z,95625.33
2019-01-27T23:41:37.901Z,95632.00
2019-01-27T23:44:07.389Z,95619.80
2019-01-27T23:46:36.763Z,95628.72
2019-01-27T23:49:06.193Z,95640.41
2019-01-27T23:51:35.574Z,95644.55
2019-01-27T23:54:05.711Z,95651.71
2019-01-27T23:56:35.212Z,95648.96
2019-01-27T23:59:05.096Z,95651.63
